Time,TemperatureF,DewpointF,PressureIn,WindDirection,WindDirectionDegrees,WindSpeedMPH,WindSpeedGustMPH,Humidity,HourlyPrecipIn,Conditions,Clouds,dailyrainin,SoftwareType,DateUTC
2013-03-06 00:02:00,-999.0,-99.9,29.94,ENE,68,11.0,17.0,-999,-99.99,,,-99.99,,2013-03-06 05:02:00,
2013-03-06 00:12:00,-999.0,-99.9,29.94,ENE,61,9.0,17.0,-999,-99.99,,,-99.99,,2013-03-06 05:12:00,
2013-03-06 00:23:00,-999.0,-99.9,29.93,NE,53,13.0,18.0,-999,-99.99,,,-99.99,,2013-03-06 05:23:00,
2013-03-06 00:32:00,-999.0,-99.9,29.93,NE,56,11.0,18.0,-999,-99.99,,,-99.99,,2013-03-06 05:32:00,
2013-03-06 00:42:00,-999.0,-99.9,29.93,ENE,62,12.0,19.0,-999,-99.99,,,-99.99,,2013-03-06 05:42:00,
2013-03-06 00:52:00,-999.0,-99.9,29.93,ENE,64,11.0,18.0,-999,-99.99,,,-99.99,,2013-03-06 05:52:00,
2013-03-06 01:02:00,-999.0,-99.9,29.93,ENE,61,7.0,15.0,-999,-99.99,,,-99.99,,2013-03-06 06:02:00,
2013-03-06 01:12:00,-999.0,-99.9,29.93,ENE,68,8.0,13.0,-999,-99.99,,,-99.99,,2013-03-06 06:12:00,
2013-03-06 01:22:00,-999.0,-99.9,29.94,ENE,74,9.0,15.0,-999,-99.99,,,-99.99,,2013-03-06 06:22:00,
2013-03-06 01:32:00,-999.0,-99.9,29.94,ENE,74,9.0,15.0,-999,-99.99,,,-99.99,,2013-03-06 06:32:00,
2013-03-06 01:42:00,-999.0,-99.9,29.94,ENE,67,8.0,11.0,-999,-99.99,,,-99.99,,2013-03-06 06:42:00,
2013-03-06 01:52:00,-999.0,-99.9,29.94,ENE,58,9.0,16.0,-999,-99.99,,,-99.99,,2013-03-06 06:52:00,
2013-03-06 02:02:00,-999.0,-99.9,29.94,ENE,68,10.0,14.0,-999,-99.99,,,-99.99,,2013-03-06 07:02:00,
2013-03-06 02:11:00,-999.0,-99.9,29.94,ENE,64,9.0,14.0,-999,-99.99,,,-99.99,,2013-03-06 07:11:00,
2013-03-06 02:22:00,-999.0,-99.9,29.94,ENE,63,9.0,16.0,-999,-99.99,,,-99.99,,2013-03-06 07:22:00,
2013-03-06 02:32:00,-999.0,-99.9,29.94,ENE,61,10.0,14.0,-999,-99.99,,,-99.99,,2013-03-06 07:32:00,
2013-03-06 02:42:00,-999.0,-99.9,29.94,ENE,64,11.0,16.0,-999,-99.99,,,-99.99,,2013-03-06 07:42:00,
2013-03-06 02:52:00,-999.0,-99.9,29.94,NE,47,9.0,11.0,-999,-99.99,,,-99.99,,2013-03-06 07:52:00,
2013-03-06 03:01:00,-999.0,-99.9,29.94,ENE,64,7.0,11.0,-999,-99.99,,,-99.99,,2013-03-06 08:01:00,
2013-03-06 03:11:00,-999.0,-99.9,29.93,ENE,63,9.0,13.0,-999,-99.99,,,-99.99,,2013-03-06 08:11:00,
2013-03-06 03:22:00,-999.0,-99.9,29.94,ENE,62,8.0,14.0,-999,-99.99,,,-99.99,,2013-03-06 08:22:00,
2013-03-06 03:32:00,-999.0,-99.9,29.93,NE,52,8.0,13.0,-999,-99.99,,,-99.99,,2013-03-06 08:32:00,
2013-03-06 03:42:00,-999.0,-99.9,29.93,NE,44,8.0,16.0,-999,-99.99,,,-99.99,,2013-03-06 08:42:00,
2013-03-06 03:52:00,-999.0,-99.9,29.93,NE,53,7.0,12.0,-999,-99.99,,,-99.99,,2013-03-06 08:52:00,
2013-03-06 04:02:00,-999.0,-99.9,29.93,NE,52,9.0,15.0,-999,-99.99,,,-99.99,,2013-03-06 09:02:00,
2013-03-06 04:12:00,-999.0,-99.9,29.93,NE,42,13.0,16.0,-999,-99.99,,,-99.99,,2013-03-06 09:12:00,
2013-03-06 04:22:00,-999.0,-99.9,29.93,NE,45,13.0,19.0,-999,-99.99,,,-99.99,,2013-03-06 09:22:00,
2013-03-06 04:32:00,-999.0,-99.9,29.93,NE,50,11.0,15.0,-999,-99.99,,,-99.99,,2013-03-06 09:32:00,
2013-03-06 04:42:00,-999.0,-99.9,29.94,ENE,61,9.0,14.0,-999,-99.99,,,-99.99,,2013-03-06 09:42:00,
2013-03-06 04:52:00,-999.0,-99.9,29.94,NE,45,12.0,16.0,-999,-99.99,,,-99.99,,2013-03-06 09:52:00,
2013-03-06 05:02:00,-999.0,-99.9,29.94,NE,49,11.0,15.0,-999,-99.99,,,-99.99,,2013-03-06 10:02:00,
2013-03-06 05:11:00,-999.0,-99.9,29.94,NE,53,9.0,12.0,-999,-99.99,,,-99.99,,2013-03-06 10:11:00,
2013-03-06 05:22:00,-999.0,-99.9,29.95,NE,51,8.0,15.0,-999,-99.99,,,-99.99,,2013-03-06 10:22:00,
2013-03-06 05:32:00,-999.0,-99.9,29.95,ENE,60,10.0,17.0,-999,-99.99,,,-99.99,,2013-03-06 10:32:00,
2013-03-06 05:42:00,-999.0,-99.9,29.95,ENE,60,10.0,15.0,-999,-99.99,,,-99.99,,2013-03-06 10:42:00,
2013-03-06 05:52:00,-999.0,-99.9,29.96,NE,54,10.0,13.0,-999,-99.99,,,-99.99,,2013-03-06 10:52:00,
2013-03-06 06:02:00,-999.0,-99.9,29.96,ENE,63,8.0,13.0,-999,-99.99,,,-99.99,,2013-03-06 11:02:00,
2013-03-06 06:11:00,-999.0,-99.9,29.97,ENE,60,8.0,14.0,-999,-99.99,,,-99.99,,2013-03-06 11:11:00,
2013-03-06 06:23:00,-999.0,-99.9,29.97,ENE,63,9.0,12.0,-999,-99.99,,,-99.99,,2013-03-06 11:23:00,
2013-03-06 06:32:00,-999.0,-99.9,29.98,NE,46,9.0,14.0,-999,-99.99,,,-99.99,,2013-03-06 11:32:00,
2013-03-06 06:43:00,-999.0,-99.9,29.99,NE,53,8.0,12.0,-999,-99.99,,,-99.99,,2013-03-06 11:43:00,
2013-03-06 06:53:00,-999.0,-99.9,29.99,NE,50,8.0,11.0,-999,-99.99,,,-99.99,,2013-03-06 11:53:00,
2013-03-06 07:02:00,-999.0,-99.9,30.00,NE,48,9.0,12.0,-999,-99.99,,,-99.99,,2013-03-06 12:02:00,
2013-03-06 07:12:00,-999.0,-99.9,30.00,ENE,57,7.0,15.0,-999,-99.99,,,-99.99,,2013-03-06 12:12:00,
2013-03-06 07:22:00,-999.0,-99.9,30.00,ENE,62,7.0,15.0,-999,-99.99,,,-99.99,,2013-03-06 12:22:00,
2013-03-06 07:33:00,-999.0,-99.9,30.01,NE,50,9.0,14.0,-999,-99.99,,,-99.99,,2013-03-06 12:33:00,
2013-03-06 07:43:00,-999.0,-99.9,30.01,NE,44,11.0,14.0,-999,-99.99,,,-99.99,,2013-03-06 12:43:00,
2013-03-06 07:53:00,-999.0,-99.9,30.02,NE,49,9.0,15.0,-999,-99.99,,,-99.99,,2013-03-06 12:53:00,
2013-03-06 08:02:00,-999.0,-99.9,30.02,NE,56,9.0,14.0,-999,-99.99,,,-99.99,,2013-03-06 13:02:00,
2013-03-06 08:12:00,-999.0,-99.9,30.03,NE,45,8.0,13.0,-999,-99.99,,,-99.99,,2013-03-06 13:12:00,
2013-03-06 08:22:00,-999.0,-99.9,30.03,ENE,62,7.0,12.0,-999,-99.99,,,-99.99,,2013-03-06 13:22:00,
2013-03-06 08:32:00,-999.0,-99.9,30.03,NE,55,6.0,10.0,-999,-99.99,,,-99.99,,2013-03-06 13:32:00,
2013-03-06 08:42:00,-999.0,-99.9,30.04,NE,54,7.0,13.0,-999,-99.99,,,-99.99,,2013-03-06 13:42:00,
2013-03-06 08:52:00,-999.0,-99.9,30.04,ENE,57,7.0,13.0,-999,-99.99,,,-99.99,,2013-03-06 13:52:00,
2013-03-06 09:02:00,-999.0,-99.9,30.04,ENE,68,7.0,9.0,-999,-99.99,,,-99.99,,2013-03-06 14:02:00,
2013-03-06 09:12:00,-999.0,-99.9,30.04,NE,49,7.0,13.0,-999,-99.99,,,-99.99,,2013-03-06 14:12:00,
2013-03-06 09:22:00,-999.0,-99.9,30.05,ENE,62,8.0,12.0,-999,-99.99,,,-99.99,,2013-03-06 14:22:00,
2013-03-06 09:32:00,-999.0,-99.9,30.05,NE,48,8.0,15.0,-999,-99.99,,,-99.99,,2013-03-06 14:32:00,
2013-03-06 09:42:00,-999.0,-99.9,30.05,NE,48,8.0,15.0,-999,-99.99,,,-99.99,,2013-03-06 14:42:00,
2013-03-06 09:53:00,-999.0,-99.9,30.06,NE,48,9.0,13.0,-999,-99.99,,,-99.99,,2013-03-06 14:53:00,
2013-03-06 10:02:00,-999.0,-99.9,30.06,ENE,57,7.0,15.0,-999,-99.99,,,-99.99,,2013-03-06 15:02:00,
2013-03-06 10:12:00,-999.0,-99.9,30.06,NE,48,10.0,14.0,-999,-99.99,,,-99.99,,2013-03-06 15:12:00,
2013-03-06 10:22:00,-999.0,-99.9,30.06,NE,39,7.0,13.0,-999,-99.99,,,-99.99,,2013-03-06 15:22:00,
2013-03-06 10:32:00,-999.0,-99.9,30.06,NE,47,9.0,14.0,-999,-99.99,,,-99.99,,2013-03-06 15:32:00,
2013-03-06 10:42:00,-999.0,-99.9,30.07,NE,44,7.0,16.0,-999,-99.99,,,-99.99,,2013-03-06 15:42:00,
2013-03-06 10:52:00,-999.0,-99.9,30.07,NE,44,7.0,16.0,-999,-99.99,,,-99.99,,2013-03-06 15:52:00,
2013-03-06 11:02:00,-999.0,-99.9,-100.00,NE,37,10.0,14.0,-999,-99.99,,,-99.99,,2013-03-06 16:02:00,
2013-03-06 11:12:00,-999.0,-99.9,30.07,NE,41,11.0,15.0,-999,-99.99,,,-99.99,,2013-03-06 16:12:00,
2013-03-06 11:22:00,-999.0,-99.9,30.08,NNE,29,9.0,12.0,-999,-99.99,,,-99.99,,2013-03-06 16:22:00,
2013-03-06 11:32:00,35.0,-99.9,30.08,North,-999,-999.0,-999.0,-999,-99.99,,,-99.99,,2013-03-06 16:32:00,
2013-03-06 12:11:00,36.0,-99.9,30.08,North,-999,-999.0,-999.0,-999,-99.99,,,-99.99,,2013-03-06 17:11:00,
2013-03-06 12:22:00,37.0,-99.9,30.09,North,-999,-999.0,-999.0,-999,-99.99,,,-99.99,,2013-03-06 17:22:00,
2013-03-06 12:32:00,37.0,-99.9,30.08,North,-999,-999.0,-999.0,-999,-99.99,,,-99.99,,2013-03-06 17:32:00,
2013-03-06 12:42:00,38.0,-99.9,30.08,North,-999,-999.0,-999.0,-999,-99.99,,,-99.99,,2013-03-06 17:42:00,
2013-03-06 12:53:00,-999.0,-99.9,30.08,ENE,75,11.0,15.0,-999,-99.99,,,-99.99,,2013-03-06 17:53:00,
2013-03-06 13:29:00,40.0,-99.9,30.07,North,-999,-999.0,-999.0,-999,-99.99,,,-99.99,,2013-03-06 18:29:00,
2013-03-06 13:42:00,40.0,-99.9,30.07,North,-999,-999.0,-999.0,-999,-99.99,,,-99.99,,2013-03-06 18:42:00,
2013-03-06 13:53:00,-999.0,-99.9,30.06,NNE,20,14.0,20.0,-999,-99.99,,,-99.99,,2013-03-06 18:53:00,
2013-03-06 14:02:00,40.0,-99.9,30.06,North,-999,-999.0,-999.0,-999,-99.99,,,-99.99,,2013-03-06 19:02:00,
2013-03-06 14:11:00,40.0,-99.9,30.06,North,-999,-999.0,-999.0,-999,-99.99,,,-99.99,,2013-03-06 19:11:00,
2013-03-06 14:22:00,40.0,-99.9,30.06,North,-999,-999.0,-999.0,-999,-99.99,,,-99.99,,2013-03-06 19:22:00,
2013-03-06 14:33:00,-999.0,-99.9,30.06,NE,52,12.0,20.0,-999,-99.99,,,-99.99,,2013-03-06 19:33:00,
2013-03-06 14:43:00,-999.0,-99.9,30.07,ENE,59,9.0,15.0,-999,-99.99,,,-99.99,,2013-03-06 19:43:00,
2013-03-06 14:53:00,40.0,-99.9,30.07,North,-999,-999.0,-999.0,-999,-99.99,,,-99.99,,2013-03-06 19:53:00,
2013-03-06 15:02:00,40.0,-99.9,30.07,North,-999,-999.0,-999.0,-999,-99.99,,,-99.99,,2013-03-06 20:02:00,
2013-03-06 15:12:00,-999.0,-99.9,30.07,NE,39,14.0,18.0,-999,-99.99,,,-99.99,,2013-03-06 20:12:00,
2013-03-06 15:23:00,39.0,-99.9,30.08,North,-999,-999.0,-999.0,-999,-99.99,,,-99.99,,2013-03-06 20:23:00,
2013-03-06 15:33:00,-999.0,-99.9,30.08,NE,49,9.0,16.0,-999,-99.99,,,-99.99,,2013-03-06 20:33:00,
2013-03-06 15:43:00,-999.0,-99.9,30.08,NE,34,12.0,17.0,-999,-99.99,,,-99.99,,2013-03-06 20:43:00,
2013-03-06 16:02:00,39.0,-99.9,30.09,North,-999,-999.0,-999.0,-999,-99.99,,,-99.99,,2013-03-06 21:02:00,
2013-03-06 16:12:00,-999.0,-99.9,30.09,NNE,20,14.0,18.0,-999,-99.99,,,-99.99,,2013-03-06 21:12:00,
2013-03-06 16:23:00,-999.0,-99.9,30.09,NE,43,10.0,14.0,-999,-99.99,,,-99.99,,2013-03-06 21:23:00,
2013-03-06 16:43:00,-999.0,-99.9,30.09,NNE,29,12.0,19.0,-999,-99.99,,,-99.99,,2013-03-06 21:43:00,
2013-03-06 16:52:00,-999.0,-99.9,30.10,NE,43,12.0,16.0,-999,-99.99,,,-99.99,,2013-03-06 21:52:00,
2013-03-06 17:02:00,39.0,-99.9,30.10,North,-999,-999.0,-999.0,-999,-99.99,,,-99.99,,2013-03-06 22:02:00,
2013-03-06 17:12:00,39.0,-99.9,30.10,North,-999,-999.0,-999.0,-999,-99.99,,,-99.99,,2013-03-06 22:12:00,
2013-03-06 17:22:00,-999.0,-99.9,30.10,NNE,30,8.0,12.0,-999,-99.99,,,-99.99,,2013-03-06 22:22:00,
2013-03-06 17:32:00,-999.0,-99.9,30.11,NE,46,7.0,10.0,-999,-99.99,,,-99.99,,2013-03-06 22:32:00,
2013-03-06 17:42:00,-999.0,-99.9,30.11,NNE,25,10.0,13.0,-999,-99.99,,,-99.99,,2013-03-06 22:42:00,
2013-03-06 17:52:00,-999.0,-99.9,30.12,NNE,29,11.0,15.0,-999,-99.99,,,-99.99,,2013-03-06 22:52:00,
2013-03-06 18:02:00,-999.0,-99.9,30.12,NNE,27,13.0,19.0,-999,-99.99,,,-99.99,,2013-03-06 23:02:00,
2013-03-06 18:11:00,38.0,-99.9,30.12,North,-999,-999.0,-999.0,-999,-99.99,,,-99.99,,2013-03-06 23:11:00,
2013-03-06 18:22:00,-999.0,-99.9,30.13,NNE,33,8.0,11.0,-999,-99.99,,,-99.99,,2013-03-06 23:22:00,
2013-03-06 18:32:00,38.0,-99.9,30.13,North,-999,-999.0,-999.0,-999,-99.99,,,-99.99,,2013-03-06 23:32:00,
2013-03-06 18:42:00,-999.0,-99.9,30.13,NE,38,7.0,11.0,-999,-99.99,,,-99.99,,2013-03-06 23:42:00,
2013-03-06 18:52:00,-999.0,-99.9,30.13,NE,53,7.0,10.0,-999,-99.99,,,-99.99,,2013-03-06 23:52:00,
2013-03-06 19:02:00,-999.0,-99.9,30.14,ENE,69,5.0,10.0,-999,-99.99,,,-99.99,,2013-03-07 00:02:00,
2013-03-06 19:11:00,-999.0,-99.9,30.14,ENE,58,7.0,11.0,-999,-99.99,,,-99.99,,2013-03-07 00:11:00,
2013-03-06 19:22:00,-999.0,-99.9,30.14,ENE,62,7.0,9.0,-999,-99.99,,,-99.99,,2013-03-07 00:22:00,
2013-03-06 19:32:00,37.0,-99.9,30.14,North,-999,-999.0,-999.0,-999,-99.99,,,-99.99,,2013-03-07 00:32:00,
2013-03-06 19:42:00,-999.0,-99.9,30.14,ENE,65,8.0,11.0,-999,-99.99,,,-99.99,,2013-03-07 00:42:00,
2013-03-06 19:52:00,37.0,-99.9,30.14,ENE,64,6.0,12.0,-999,-99.99,,,-99.99,,2013-03-07 00:52:00,
2013-03-06 20:02:00,-999.0,-99.9,30.14,ENE,60,7.0,12.0,-999,-99.99,,,-99.99,,2013-03-07 01:02:00,
2013-03-06 20:12:00,-999.0,-99.9,30.14,ENE,65,5.0,9.0,-999,-99.99,,,-99.99,,2013-03-07 01:12:00,
2013-03-06 20:22:00,37.0,-99.9,30.14,North,-999,-999.0,-999.0,-999,-99.99,,,-99.99,,2013-03-07 01:22:00,
2013-03-06 20:32:00,-999.0,-99.9,30.14,ENE,57,4.0,8.0,-999,-99.99,,,-99.99,,2013-03-07 01:32:00,
2013-03-06 20:42:00,-999.0,-99.9,30.15,NE,36,5.0,6.0,-999,-99.99,,,-99.99,,2013-03-07 01:42:00,
2013-03-06 20:52:00,-999.0,-99.9,30.15,NE,42,5.0,8.0,-999,-99.99,,,-99.99,,2013-03-07 01:52:00,
2013-03-06 21:11:00,36.0,-99.9,30.15,North,-999,-999.0,-999.0,-999,-99.99,,,-99.99,,2013-03-07 02:11:00,
2013-03-06 21:22:00,-999.0,-99.9,30.15,ENE,58,4.0,5.0,-999,-99.99,,,-99.99,,2013-03-07 02:22:00,
2013-03-06 21:32:00,-999.0,-99.9,30.15,ENE,59,5.0,9.0,-999,-99.99,,,-99.99,,2013-03-07 02:32:00,
2013-03-06 21:42:00,-999.0,-99.9,30.15,ENE,59,5.0,9.0,-999,-99.99,,,-99.99,,2013-03-07 02:42:00,
2013-03-06 21:52:00,-999.0,-99.9,30.15,ENE,59,5.0,9.0,-999,-99.99,,,-99.99,,2013-03-07 02:52:00,
2013-03-06 22:02:00,36.0,-99.9,30.15,North,-999,-999.0,-999.0,-999,-99.99,,,-99.99,,2013-03-07 03:02:00,
2013-03-06 22:12:00,36.0,-99.9,30.15,North,-999,-999.0,-999.0,-999,-99.99,,,-99.99,,2013-03-07 03:12:00,
2013-03-06 22:22:00,-999.0,-99.9,30.15,NNE,33,9.0,13.0,-999,-99.99,,,-99.99,,2013-03-07 03:22:00,
2013-03-06 22:42:00,36.0,-99.9,30.15,North,-999,-999.0,-999.0,-999,-99.99,,,-99.99,,2013-03-07 03:42:00,
2013-03-06 22:52:00,36.0,-99.9,30.15,North,-999,-999.0,-999.0,-999,-99.99,,,-99.99,,2013-03-07 03:52:00,
2013-03-06 23:12:00,36.0,-99.9,30.15,North,-999,-999.0,-999.0,-999,-99.99,,,-99.99,,2013-03-07 04:12:00,
2013-03-06 23:22:00,36.0,-99.9,30.15,North,-999,-999.0,-999.0,-999,-99.99,,,-99.99,,2013-03-07 04:22:00,
2013-03-06 23:42:00,-999.0,-99.9,30.15,NE,48,7.0,10.0,-999,-99.99,,,-99.99,,2013-03-07 04:42:00,
2013-03-06 23:52:00,-999.0,-99.9,30.15,NNE,21,8.0,9.0,-999,-99.99,,,-99.99,,2013-03-07 04:52:00,